Time,TemperatureF,DewpointF,PressureIn,WindDirection,WindDirectionDegrees,WindSpeedMPH,WindSpeedGustMPH,Humidity,HourlyPrecipIn,Conditions,Clouds,dailyrainin,SoftwareType,DateUTC
2013-05-21 00:00:00,41.0,21.8,30.50,North,0,0.0,0.0,46,0.00,CLR,,0.00,WeatherDisplay:10.37,2013-05-21 08:00:00,
2013-05-21 00:10:00,39.1,20.0,30.50,North,0,0.0,0.0,46,0.00,CLR,,0.00,WeatherDisplay:10.37,2013-05-21 08:10:00,
2013-05-21 00:15:00,38.5,21.9,30.50,North,0,0.0,0.0,51,0.00,CLR,,0.00,WeatherDisplay:10.37,2013-05-21 08:15:00,
2013-05-21 00:20:00,38.5,21.9,30.50,North,0,0.0,0.0,51,0.00,CLR,,0.00,WeatherDisplay:10.37,2013-05-21 08:20:00,
2013-05-21 00:25:00,38.5,21.0,30.50,North,0,0.0,0.0,49,0.00,CLR,,0.00,WeatherDisplay:10.37,2013-05-21 08:25:00,
2013-05-21 00:30:00,38.8,23.2,30.50,North,0,0.0,0.0,53,0.00,CLR,,0.00,WeatherDisplay:10.37,2013-05-21 08:30:00,
2013-05-21 00:40:00,39.5,20.9,30.50,North,0,0.0,0.0,47,0.00,CLR,,0.00,WeatherDisplay:10.37,2013-05-21 08:40:00,
2013-05-21 00:45:00,39.4,18.2,30.50,North,0,0.0,0.0,42,0.00,CLR,,0.00,WeatherDisplay:10.37,2013-05-21 08:45:00,
2013-05-21 00:50:00,39.4,19.3,30.50,North,0,0.0,0.0,44,0.00,CLR,,0.00,WeatherDisplay:10.37,2013-05-21 08:50:00,
2013-05-21 00:55:00,39.4,19.3,30.50,North,0,0.0,0.0,44,0.00,CLR,,0.00,WeatherDisplay:10.37,2013-05-21 08:55:00,
2013-05-21 01:00:00,39.2,18.0,30.50,North,0,0.0,0.0,42,0.00,CLR,,0.00,WeatherDisplay:10.37,2013-05-21 09:00:00,
2013-05-21 01:15:00,39.1,17.9,30.50,North,0,0.0,0.0,42,0.00,CLR,,0.00,WeatherDisplay:10.37,2013-05-21 09:15:00,
2013-05-21 01:25:00,39.0,20.0,30.50,West,268,0.0,0.0,46,0.00,CLR,,0.00,WeatherDisplay:10.37,2013-05-21 09:25:00,
2013-05-21 01:30:00,38.4,17.3,30.50,West,262,0.0,0.0,42,0.00,CLR,,0.00,WeatherDisplay:10.37,2013-05-21 09:30:00,
2013-05-21 01:40:00,37.6,21.1,30.50,WSW,251,0.0,0.0,51,0.00,CLR,,0.00,WeatherDisplay:10.37,2013-05-21 09:40:00,
2013-05-21 01:45:00,37.0,19.6,30.50,West,277,0.0,0.0,49,0.00,CLR,,0.00,WeatherDisplay:10.37,2013-05-21 09:45:00,
2013-05-21 01:55:00,36.9,19.5,30.50,West,260,0.0,0.0,49,0.00,CLR,,0.00,WeatherDisplay:10.37,2013-05-21 09:55:00,
2013-05-21 02:00:00,36.9,19.9,30.50,West,263,0.0,0.0,50,0.00,CLR,,0.00,WeatherDisplay:10.37,2013-05-21 10:00:00,
2013-05-21 02:05:00,36.4,20.5,30.50,West,277,0.0,0.0,52,0.00,CLR,,0.00,WeatherDisplay:10.37,2013-05-21 10:05:00,
2013-05-21 02:10:00,35.8,19.9,30.50,NE,50,0.0,0.0,52,0.00,CLR,,0.00,WeatherDisplay:10.37,2013-05-21 10:10:00,
2013-05-21 02:15:00,35.4,19.5,30.50,NE,42,0.0,0.0,52,0.00,CLR,,0.00,WeatherDisplay:10.37,2013-05-21 10:15:00,
2013-05-21 02:25:00,34.5,20.8,30.51,NE,48,0.0,0.0,57,0.00,CLR,,0.00,WeatherDisplay:10.37,2013-05-21 10:25:00,
2013-05-21 02:30:00,34.1,19.1,30.51,ENE,57,0.0,0.0,54,0.00,CLR,,0.00,WeatherDisplay:10.37,2013-05-21 10:30:00,
2013-05-21 02:40:00,32.7,17.0,30.50,NE,45,0.0,0.0,52,0.00,CLR,,0.00,WeatherDisplay:10.37,2013-05-21 10:40:00,
2013-05-21 02:45:00,32.7,18.3,30.51,NE,45,0.0,0.0,55,0.00,CLR,,0.00,WeatherDisplay:10.37,2013-05-21 10:45:00,
2013-05-21 02:55:00,32.7,15.6,30.51,NE,44,0.0,0.0,49,0.00,CLR,,0.00,WeatherDisplay:10.37,2013-05-21 10:55:00,
2013-05-21 03:00:00,32.5,18.1,30.51,NE,46,0.0,0.0,55,0.00,CLR,,0.00,WeatherDisplay:10.37,2013-05-21 11:00:00,
2013-05-21 03:10:00,33.4,19.4,30.51,NE,41,0.0,0.0,56,0.00,CLR,,0.00,WeatherDisplay:10.37,2013-05-21 11:10:00,
2013-05-21 03:15:00,33.6,19.6,30.51,NE,43,0.0,0.0,56,0.00,CLR,,0.00,WeatherDisplay:10.37,2013-05-21 11:15:00,
2013-05-21 03:25:00,34.2,21.8,30.51,NE,36,0.0,0.0,60,0.00,CLR,,0.00,WeatherDisplay:10.37,2013-05-21 11:25:00,
2013-05-21 03:30:00,34.1,21.6,30.51,NNE,32,0.0,0.0,60,0.00,CLR,,0.00,WeatherDisplay:10.37,2013-05-21 11:30:00,
2013-05-21 03:40:00,32.9,20.5,30.51,East,91,0.0,0.0,60,0.00,CLR,,0.00,WeatherDisplay:10.37,2013-05-21 11:40:00,
2013-05-21 03:45:00,32.2,19.4,30.52,WNW,293,0.0,0.0,59,0.00,CLR,,0.00,WeatherDisplay:10.37,2013-05-21 11:45:00,
2013-05-21 03:55:00,30.0,17.8,30.52,WNW,303,0.0,0.0,60,0.00,CLR,,0.00,WeatherDisplay:10.37,2013-05-21 11:55:00,
2013-05-21 04:00:00,30.0,17.0,30.52,WNW,301,0.0,0.0,58,0.00,CLR,,0.00,WeatherDisplay:10.37,2013-05-21 12:00:00,
2013-05-21 04:10:00,29.7,15.9,30.52,West,272,0.0,0.0,56,0.00,CLR,,0.00,WeatherDisplay:10.37,2013-05-21 12:10:00,
2013-05-21 04:15:00,29.7,17.5,30.52,WNW,282,0.0,0.0,60,0.00,CLR,,0.00,WeatherDisplay:10.37,2013-05-21 12:15:00,
2013-05-21 04:25:00,29.7,15.9,30.52,NE,39,0.0,0.0,56,0.00,CLR,,0.00,WeatherDisplay:10.37,2013-05-21 12:25:00,
2013-05-21 04:30:00,30.0,17.8,30.52,NE,45,0.0,0.0,60,0.00,CLR,,0.00,WeatherDisplay:10.37,2013-05-21 12:30:00,
2013-05-21 04:40:00,31.6,21.2,30.52,NE,35,0.0,0.0,65,0.00,CLR,,0.00,WeatherDisplay:10.37,2013-05-21 12:40:00,
2013-05-21 04:45:00,31.8,19.9,30.52,NE,42,0.0,0.0,61,0.00,CLR,,0.00,WeatherDisplay:10.37,2013-05-21 12:45:00,
2013-05-21 04:55:00,31.8,20.3,30.51,NE,35,0.0,0.0,62,0.00,CLR,,0.00,WeatherDisplay:10.37,2013-05-21 12:55:00,
2013-05-21 05:00:00,31.8,20.3,30.52,NNE,28,0.0,0.0,62,0.00,CLR,,0.00,WeatherDisplay:10.37,2013-05-21 13:00:00,
2013-05-21 05:05:00,31.8,19.5,30.52,NE,44,0.0,0.0,60,0.00,CLR,,0.00,WeatherDisplay:10.37,2013-05-21 13:05:00,
2013-05-21 05:10:00,32.0,20.1,30.51,NE,48,0.0,0.0,61,0.00,CLR,,0.00,WeatherDisplay:10.37,2013-05-21 13:10:00,
2013-05-21 05:15:00,32.2,21.0,30.52,NE,44,0.0,0.0,63,0.00,CLR,,0.00,WeatherDisplay:10.37,2013-05-21 13:15:00,
2013-05-21 05:25:00,32.8,27.3,30.52,NE,44,0.0,0.0,80,0.00,CLR,,0.00,WeatherDisplay:10.37,2013-05-21 13:25:00,
2013-05-21 05:30:00,33.1,21.5,30.52,NE,39,0.0,0.0,62,0.00,CLR,,0.00,WeatherDisplay:10.37,2013-05-21 13:30:00,
2013-05-21 05:40:00,35.2,22.3,30.52,NE,39,0.0,0.0,59,0.00,CLR,,0.00,WeatherDisplay:10.37,2013-05-21 13:40:00,
2013-05-21 05:45:00,36.0,25.3,30.52,NE,56,0.0,0.0,65,0.00,CLR,,0.00,WeatherDisplay:10.37,2013-05-21 13:45:00,
2013-05-21 05:55:00,36.4,25.3,30.52,ESE,104,0.0,0.0,64,0.00,CLR,,0.00,WeatherDisplay:10.37,2013-05-21 13:55:00,
2013-05-21 06:00:00,36.9,25.0,30.52,East,85,0.0,0.0,62,0.00,CLR,,0.00,WeatherDisplay:10.37,2013-05-21 14:00:00,
2013-05-21 06:10:00,37.3,24.7,30.51,ENE,71,0.0,0.0,60,0.00,CLR,,0.00,WeatherDisplay:10.37,2013-05-21 14:10:00,
2013-05-21 06:15:00,37.6,24.9,30.51,East,84,0.0,0.0,60,0.00,CLR,,0.00,WeatherDisplay:10.37,2013-05-21 14:15:00,
2013-05-21 06:20:00,38.1,25.0,30.51,East,79,0.0,0.0,59,0.00,CLR,,0.00,WeatherDisplay:10.37,2013-05-21 14:20:00,
2013-05-21 06:25:00,38.8,24.8,30.51,ENE,65,0.0,0.0,57,0.00,CLR,,0.00,WeatherDisplay:10.37,2013-05-21 14:25:00,
2013-05-21 06:30:00,39.7,25.7,30.51,ENE,73,0.0,0.0,57,0.00,CLR,,0.00,WeatherDisplay:10.37,2013-05-21 14:30:00,
2013-05-21 06:35:00,40.8,26.8,30.51,ENE,72,0.0,0.0,57,0.00,CLR,,0.00,WeatherDisplay:10.37,2013-05-21 14:35:00,
2013-05-21 06:40:00,41.5,27.4,30.51,ENE,74,0.0,0.0,57,0.00,CLR,,0.00,WeatherDisplay:10.37,2013-05-21 14:40:00,
2013-05-21 06:45:00,41.8,28.1,30.51,ENE,77,0.0,0.0,58,0.00,CLR,,0.00,WeatherDisplay:10.37,2013-05-21 14:45:00,
2013-05-21 06:50:00,41.3,25.9,30.51,ENE,77,0.0,0.0,54,0.00,CLR,,0.00,WeatherDisplay:10.37,2013-05-21 14:50:00,
2013-05-21 07:00:00,40.3,24.5,30.51,East,84,0.0,0.0,53,0.00,CLR,,0.00,WeatherDisplay:10.37,2013-05-21 15:00:00,
2013-05-21 07:10:00,40.3,23.6,30.51,NE,54,0.0,0.0,51,0.00,CLR,,0.00,WeatherDisplay:10.37,2013-05-21 15:10:00,
2013-05-21 07:15:00,40.3,22.1,30.50,ENE,61,0.0,0.0,48,0.00,CLR,,0.00,WeatherDisplay:10.37,2013-05-21 15:15:00,
2013-05-21 07:20:00,40.6,22.5,30.50,ESE,104,0.0,0.0,48,0.00,CLR,,0.00,WeatherDisplay:10.37,2013-05-21 15:20:00,
2013-05-21 07:25:00,41.2,22.0,30.51,East,97,0.0,0.0,46,0.00,CLR,,0.00,WeatherDisplay:10.37,2013-05-21 15:25:00,
2013-05-21 07:30:00,42.3,23.5,30.51,ENE,64,0.0,0.0,47,0.00,CLR,,0.00,WeatherDisplay:10.37,2013-05-21 15:30:00,
2013-05-21 07:40:00,43.4,24.0,30.50,ENE,72,0.0,0.0,46,0.00,CLR,,0.00,WeatherDisplay:10.37,2013-05-21 15:40:00,
2013-05-21 07:45:00,43.9,24.0,30.51,ENE,61,0.0,0.0,45,0.00,CLR,,0.00,WeatherDisplay:10.37,2013-05-21 15:45:00,
2013-05-21 07:50:00,45.1,27.5,30.51,ENE,73,0.0,0.0,50,0.00,CLR,,0.00,WeatherDisplay:10.37,2013-05-21 15:50:00,
2013-05-21 07:55:00,45.8,24.5,30.50,ENE,73,0.0,0.0,43,0.00,CLR,,0.00,WeatherDisplay:10.37,2013-05-21 15:55:00,
2013-05-21 08:00:00,46.2,24.9,30.50,ENE,76,0.0,0.0,43,0.00,CLR,,0.00,WeatherDisplay:10.37,2013-05-21 16:00:00,
2013-05-21 08:10:00,46.0,24.2,30.50,ESE,105,0.0,0.0,42,0.00,CLR,,0.00,WeatherDisplay:10.37,2013-05-21 16:10:00,
2013-05-21 08:15:00,46.3,23.9,30.50,East,85,0.0,0.0,41,0.00,CLR,,0.00,WeatherDisplay:10.37,2013-05-21 16:15:00,
2013-05-21 08:25:00,48.2,26.2,30.50,ESE,122,0.0,0.0,42,0.00,CLR,,0.00,WeatherDisplay:10.37,2013-05-21 16:25:00,
2013-05-21 08:30:00,49.0,25.7,30.50,ESE,121,0.0,0.0,40,0.00,CLR,,0.00,WeatherDisplay:10.37,2013-05-21 16:30:00,
2013-05-21 08:35:00,49.6,26.9,30.50,ESE,104,0.0,0.0,41,0.00,CLR,,0.00,WeatherDisplay:10.37,2013-05-21 16:35:00,
2013-05-21 08:40:00,50.2,26.8,30.50,ENE,77,0.0,0.0,40,0.00,CLR,,0.00,WeatherDisplay:10.37,2013-05-21 16:40:00,
2013-05-21 08:45:00,49.9,25.9,30.49,NE,53,0.0,0.0,39,0.00,CLR,,0.00,WeatherDisplay:10.37,2013-05-21 16:45:00,
2013-05-21 08:55:00,50.5,25.8,30.49,East,86,0.0,0.0,38,0.00,CLR,,0.00,WeatherDisplay:10.37,2013-05-21 16:55:00,
2013-05-21 09:00:00,50.7,25.4,30.49,East,97,0.0,0.0,37,0.00,CLR,,0.00,WeatherDisplay:10.37,2013-05-21 17:00:00,
2013-05-21 09:05:00,50.7,24.7,30.49,ESE,110,0.0,0.0,36,0.00,CLR,,0.00,WeatherDisplay:10.37,2013-05-21 17:05:00,
2013-05-21 09:10:00,50.8,28.5,30.49,East,96,0.0,0.0,42,0.00,CLR,,0.00,WeatherDisplay:10.37,2013-05-21 17:10:00,
2013-05-21 09:15:00,51.3,25.9,30.48,ESE,117,0.0,0.0,37,0.00,CLR,,0.00,WeatherDisplay:10.37,2013-05-21 17:15:00,
2013-05-21 09:20:00,51.6,25.5,30.48,SSE,149,0.0,0.0,36,0.00,CLR,,0.00,WeatherDisplay:10.37,2013-05-21 17:20:00,
2013-05-21 09:25:00,52.1,23.9,30.48,East,83,0.0,0.0,33,0.00,CLR,,0.00,WeatherDisplay:10.37,2013-05-21 17:25:00,
2013-05-21 09:30:00,52.0,25.1,30.48,East,82,0.0,0.0,35,0.00,CLR,,0.00,WeatherDisplay:10.37,2013-05-21 17:30:00,
2013-05-21 09:35:00,53.0,26.7,30.48,SSE,148,0.0,0.0,36,0.00,CLR,,0.00,WeatherDisplay:10.37,2013-05-21 17:35:00,
2013-05-21 09:40:00,53.6,25.2,30.48,SE,137,0.0,0.0,33,0.00,CLR,,0.00,WeatherDisplay:10.37,2013-05-21 17:40:00,
2013-05-21 09:45:00,54.1,24.9,30.48,ESE,109,0.0,0.0,32,0.00,CLR,,0.00,WeatherDisplay:10.37,2013-05-21 17:45:00,
2013-05-21 09:55:00,55.0,26.4,30.48,SSE,154,0.0,0.0,33,0.00,CLR,,0.00,WeatherDisplay:10.37,2013-05-21 17:55:00,
2013-05-21 10:00:00,55.6,25.4,30.47,SE,142,0.0,0.0,31,0.00,CLR,,0.00,WeatherDisplay:10.37,2013-05-21 18:00:00,
2013-05-21 10:05:00,55.9,25.7,30.47,SE,126,0.0,0.0,31,0.00,CLR,,0.00,WeatherDisplay:10.37,2013-05-21 18:05:00,
2013-05-21 10:10:00,55.9,25.7,30.47,East,99,0.0,0.0,31,0.00,CLR,,0.00,WeatherDisplay:10.37,2013-05-21 18:10:00,
2013-05-21 10:15:00,56.0,25.0,30.47,East,89,0.0,0.0,30,0.00,CLR,,0.00,WeatherDisplay:10.37,2013-05-21 18:15:00,
2013-05-21 10:25:00,56.3,26.8,30.47,ESE,113,0.0,0.0,32,0.00,CLR,,0.00,WeatherDisplay:10.37,2013-05-21 18:25:00,
2013-05-21 10:30:00,56.1,25.0,30.46,ENE,68,0.0,0.0,30,0.00,CLR,,0.00,WeatherDisplay:10.37,2013-05-21 18:30:00,
2013-05-21 10:40:00,55.9,26.5,30.46,South,178,0.0,0.0,32,0.00,CLR,,0.00,WeatherDisplay:10.37,2013-05-21 18:40:00,
2013-05-21 10:45:00,55.8,24.8,30.46,South,169,0.0,0.0,30,0.00,CLR,,0.00,WeatherDisplay:10.37,2013-05-21 18:45:00,
2013-05-21 10:55:00,55.9,26.4,30.46,SE,139,0.0,0.0,32,0.00,CLR,,0.00,WeatherDisplay:10.37,2013-05-21 18:55:00,
2013-05-21 11:00:00,56.1,23.4,30.46,SSE,159,0.0,0.0,28,0.00,CLR,,0.00,WeatherDisplay:10.37,2013-05-21 19:00:00,
2013-05-21 11:10:00,56.8,24.0,30.45,SSE,159,0.0,0.0,28,0.00,CLR,,0.00,WeatherDisplay:10.37,2013-05-21 19:10:00,
2013-05-21 11:15:00,57.0,24.2,30.45,SSE,166,0.0,0.0,28,0.00,CLR,,0.00,WeatherDisplay:10.37,2013-05-21 19:15:00,
2013-05-21 11:25:00,57.3,22.6,30.45,SE,135,0.0,0.0,26,0.00,CLR,,0.00,WeatherDisplay:10.37,2013-05-21 19:25:00,
2013-05-21 11:30:00,57.0,23.3,30.45,SSE,161,0.0,0.0,27,0.00,CLR,,0.00,WeatherDisplay:10.37,2013-05-21 19:30:00,
2013-05-21 11:40:00,58.0,29.1,30.45,SSE,148,0.0,0.0,33,0.00,CLR,,0.00,WeatherDisplay:10.37,2013-05-21 19:40:00,
2013-05-21 11:45:00,58.0,23.3,30.45,ESE,121,0.0,0.0,26,0.00,CLR,,0.00,WeatherDisplay:10.37,2013-05-21 19:45:00,
2013-05-21 11:50:00,57.8,24.0,30.44,East,97,0.0,0.0,27,0.00,CLR,,0.00,WeatherDisplay:10.37,2013-05-21 19:50:00,
2013-05-21 11:55:00,58.5,24.6,30.44,ESE,107,0.0,0.0,27,0.00,CLR,,0.00,WeatherDisplay:10.37,2013-05-21 19:55:00,
2013-05-21 12:00:00,58.5,25.4,30.44,SE,133,0.0,0.0,28,0.00,CLR,,0.00,WeatherDisplay:10.37,2013-05-21 20:00:00,
2013-05-21 12:10:00,57.9,23.2,30.44,ESE,108,0.0,0.0,26,0.00,CLR,,0.00,WeatherDisplay:10.37,2013-05-21 20:10:00,
2013-05-21 12:15:00,57.7,23.9,30.43,ESE,120,0.0,0.0,27,0.00,CLR,,0.00,WeatherDisplay:10.37,2013-05-21 20:15:00,
2013-05-21 12:25:00,57.9,24.1,30.43,ESE,113,0.0,0.0,27,0.00,CLR,,0.00,WeatherDisplay:10.37,2013-05-21 20:25:00,
2013-05-21 12:30:00,57.9,25.0,30.43,ESE,109,0.0,0.0,28,0.00,CLR,,0.00,WeatherDisplay:10.37,2013-05-21 20:30:00,
2013-05-21 12:40:00,58.8,25.7,30.43,ESE,105,0.0,0.0,28,0.00,CLR,,0.00,WeatherDisplay:10.37,2013-05-21 20:40:00,
2013-05-21 12:45:00,59.5,25.5,30.43,East,86,0.0,0.0,27,0.00,CLR,,0.00,WeatherDisplay:10.37,2013-05-21 20:45:00,
2013-05-21 12:55:00,59.0,23.2,30.43,ESE,119,0.0,0.0,25,0.00,CLR,,0.00,WeatherDisplay:10.37,2013-05-21 20:55:00,
2013-05-21 13:00:00,59.2,23.3,30.42,SE,145,0.0,0.0,25,0.00,CLR,,0.00,WeatherDisplay:10.37,2013-05-21 21:00:00,
2013-05-21 13:10:00,60.1,25.0,30.42,ESE,115,0.0,0.0,26,0.00,CLR,,0.00,WeatherDisplay:10.37,2013-05-21 21:10:00,
2013-05-21 13:15:00,60.3,26.1,30.41,East,97,0.0,0.0,27,0.00,CLR,,0.00,WeatherDisplay:10.37,2013-05-21 21:15:00,
2013-05-21 13:25:00,61.2,26.0,30.41,SE,136,0.0,0.0,26,0.00,CLR,,0.00,WeatherDisplay:10.37,2013-05-21 21:25:00,
2013-05-21 13:30:00,60.9,24.8,30.41,East,81,0.0,0.0,25,0.00,CLR,,0.00,WeatherDisplay:10.37,2013-05-21 21:30:00,
2013-05-21 13:35:00,60.9,27.6,30.41,ESE,105,0.0,0.0,28,0.00,CLR,,0.00,WeatherDisplay:10.37,2013-05-21 21:35:00,
2013-05-21 13:40:00,61.3,25.2,30.41,SE,124,0.0,0.0,25,0.00,CLR,,0.00,WeatherDisplay:10.37,2013-05-21 21:40:00,
2013-05-21 13:45:00,61.5,27.2,30.40,SE,145,0.0,0.0,27,0.00,CLR,,0.00,WeatherDisplay:10.37,2013-05-21 21:45:00,
2013-05-21 13:55:00,62.3,27.0,30.40,SSE,165,0.0,0.0,26,0.00,CLR,,0.00,WeatherDisplay:10.37,2013-05-21 21:55:00,
2013-05-21 14:00:00,62.2,26.9,30.40,ENE,64,0.0,0.0,26,0.00,CLR,,0.00,WeatherDisplay:10.37,2013-05-21 22:00:00,
2013-05-21 14:10:00,63.1,27.7,30.39,East,91,0.0,0.0,26,0.00,CLR,,0.00,WeatherDisplay:10.37,2013-05-21 22:10:00,
2013-05-21 14:15:00,63.8,30.0,30.39,ESE,108,0.0,0.0,28,0.00,CLR,,0.00,WeatherDisplay:10.37,2013-05-21 22:15:00,
2013-05-21 14:20:00,63.3,26.9,30.39,ENE,67,0.0,0.0,25,0.00,CLR,,0.00,WeatherDisplay:10.37,2013-05-21 22:20:00,
2013-05-21 14:25:00,63.3,27.8,30.39,ESE,106,0.0,0.0,26,0.00,CLR,,0.00,WeatherDisplay:10.37,2013-05-21 22:25:00,
2013-05-21 14:30:00,63.6,28.1,30.38,SE,135,0.0,0.0,26,0.00,CLR,,0.00,WeatherDisplay:10.37,2013-05-21 22:30:00,
2013-05-21 14:40:00,63.5,28.9,30.38,East,82,0.0,0.0,27,0.00,CLR,,0.00,WeatherDisplay:10.37,2013-05-21 22:40:00,
2013-05-21 14:45:00,63.3,26.9,30.38,East,89,0.0,0.0,25,0.00,CLR,,0.00,WeatherDisplay:10.37,2013-05-21 22:45:00,
2013-05-21 14:50:00,63.2,28.7,30.38,SSE,147,0.0,0.0,27,0.00,CLR,,0.00,WeatherDisplay:10.37,2013-05-21 22:50:00,
2013-05-21 14:55:00,63.6,28.1,30.37,SSE,158,0.0,0.0,26,0.00,CLR,,0.00,WeatherDisplay:10.37,2013-05-21 22:55:00,
2013-05-21 15:00:00,63.3,26.9,30.37,ESE,120,0.0,0.0,25,0.00,CLR,,0.00,WeatherDisplay:10.37,2013-05-21 23:00:00,
2013-05-21 15:10:00,64.1,27.6,30.37,SE,131,0.0,0.0,25,0.00,CLR,,0.00,WeatherDisplay:10.37,2013-05-21 23:10:00,
2013-05-21 15:15:00,64.3,26.7,30.36,ESE,102,0.0,0.0,24,0.00,CLR,,0.00,WeatherDisplay:10.37,2013-05-21 23:15:00,
2013-05-21 15:25:00,64.3,26.7,30.36,ENE,71,0.0,0.0,24,0.00,CLR,,0.00,WeatherDisplay:10.37,2013-05-21 23:25:00,
2013-05-21 15:30:00,64.1,27.5,30.36,East,80,0.0,0.0,25,0.00,CLR,,0.00,WeatherDisplay:10.37,2013-05-21 23:30:00,
2013-05-21 15:40:00,64.7,28.0,30.35,East,80,0.0,0.0,25,0.00,CLR,,0.00,WeatherDisplay:10.37,2013-05-21 23:40:00,
2013-05-21 15:45:00,65.0,28.3,30.35,ENE,61,0.0,0.0,25,0.00,CLR,,0.00,WeatherDisplay:10.37,2013-05-21 23:45:00,
2013-05-21 15:55:00,65.3,27.5,30.34,ENE,68,2.0,0.0,24,0.00,CLR,,0.00,WeatherDisplay:10.37,2013-05-21 23:55:00,
2013-05-21 16:00:00,65.3,27.5,30.34,NE,52,5.0,0.0,24,0.00,CLR,,0.00,WeatherDisplay:10.37,2013-05-22 00:00:00,
2013-05-21 16:05:00,65.5,27.7,30.34,NE,47,1.0,0.0,24,0.00,CLR,,0.00,WeatherDisplay:10.37,2013-05-22 00:05:00,
2013-05-21 16:10:00,66.0,26.0,30.34,ENE,71,2.0,0.0,22,0.00,CLR,,0.00,WeatherDisplay:10.37,2013-05-22 00:10:00,
2013-05-21 16:15:00,65.6,27.8,30.34,East,90,0.0,0.0,24,0.00,CLR,,0.00,WeatherDisplay:10.37,2013-05-22 00:15:00,
2013-05-21 16:20:00,66.1,26.1,30.34,SSW,209,0.0,0.0,22,0.00,CLR,,0.00,WeatherDisplay:10.37,2013-05-22 00:20:00,
2013-05-21 16:25:00,66.0,28.2,30.33,East,84,0.0,0.0,24,0.00,CLR,,0.00,WeatherDisplay:10.37,2013-05-22 00:25:00,
2013-05-21 16:30:00,66.1,28.3,30.33,ENE,61,1.0,0.0,24,0.00,CLR,,0.00,WeatherDisplay:10.37,2013-05-22 00:30:00,
2013-05-21 16:40:00,66.7,26.6,30.33,ESE,111,0.0,0.0,22,0.00,CLR,,0.00,WeatherDisplay:10.37,2013-05-22 00:40:00,
2013-05-21 16:45:00,66.5,27.5,30.33,ESE,110,0.0,0.0,23,0.00,CLR,,0.00,WeatherDisplay:10.37,2013-05-22 00:45:00,
2013-05-21 16:55:00,66.8,25.6,30.32,ESE,113,0.0,0.0,21,0.00,CLR,,0.00,WeatherDisplay:10.37,2013-05-22 00:55:00,
2013-05-21 17:05:00,66.2,23.9,30.32,ESE,109,0.0,0.0,20,0.00,CLR,,0.00,WeatherDisplay:10.37,2013-05-22 01:05:00,
2013-05-21 17:15:00,67.9,24.1,30.32,ESE,111,0.0,0.0,19,0.00,CLR,,0.00,WeatherDisplay:10.37,2013-05-22 01:15:00,
2013-05-21 17:25:00,67.8,26.4,30.32,SE,132,0.0,0.0,21,0.00,CLR,,0.00,WeatherDisplay:10.37,2013-05-22 01:25:00,
2013-05-21 17:30:00,68.0,25.4,30.31,SE,124,0.0,0.0,20,0.00,CLR,,0.00,WeatherDisplay:10.37,2013-05-22 01:30:00,
2013-05-21 17:40:00,67.6,25.1,30.31,ESE,108,0.0,0.0,20,0.00,CLR,,0.00,WeatherDisplay:10.37,2013-05-22 01:40:00,
2013-05-21 17:45:00,67.8,26.4,30.31,ESE,117,0.0,0.0,21,0.00,CLR,,0.00,WeatherDisplay:10.37,2013-05-22 01:45:00,
2013-05-21 17:50:00,67.8,24.0,30.30,SE,130,0.0,0.0,19,0.00,CLR,,0.00,WeatherDisplay:10.37,2013-05-22 01:50:00,
2013-05-21 17:55:00,68.2,26.7,30.30,SE,138,0.0,0.0,21,0.00,CLR,,0.00,WeatherDisplay:10.37,2013-05-22 01:55:00,
2013-05-21 18:00:00,68.7,28.3,30.30,South,184,0.0,0.0,22,0.00,CLR,,0.00,WeatherDisplay:10.37,2013-05-22 02:00:00,
2013-05-21 18:05:00,69.1,26.3,30.30,SSE,159,0.0,0.0,20,0.00,CLR,,0.00,WeatherDisplay:10.37,2013-05-22 02:05:00,
2013-05-21 18:10:00,68.9,26.2,30.30,ESE,119,0.0,0.0,20,0.00,CLR,,0.00,WeatherDisplay:10.37,2013-05-22 02:10:00,
2013-05-21 18:15:00,69.1,30.7,30.29,SSE,164,0.0,0.0,24,0.00,CLR,,0.00,WeatherDisplay:10.37,2013-05-22 02:15:00,
2013-05-21 18:20:00,69.4,27.8,30.29,SSE,157,0.0,0.0,21,0.00,CLR,,0.00,WeatherDisplay:10.37,2013-05-22 02:20:00,
2013-05-21 18:25:00,69.1,26.3,30.29,SE,126,0.0,0.0,20,0.00,CLR,,0.00,WeatherDisplay:10.37,2013-05-22 02:25:00,
2013-05-21 18:30:00,68.7,26.0,30.29,SE,131,0.0,0.0,20,0.00,CLR,,0.00,WeatherDisplay:10.37,2013-05-22 02:30:00,
2013-05-21 18:40:00,67.9,25.3,30.28,SE,125,0.0,0.0,20,0.00,CLR,,0.00,WeatherDisplay:10.37,2013-05-22 02:40:00,
2013-05-21 18:45:00,67.4,26.0,30.28,SE,143,0.0,0.0,21,0.00,CLR,,0.00,WeatherDisplay:10.37,2013-05-22 02:45:00,
2013-05-21 18:50:00,66.7,25.5,30.28,ESE,121,0.0,0.0,21,0.00,CLR,,0.00,WeatherDisplay:10.37,2013-05-22 02:50:00,
2013-05-21 18:55:00,66.0,24.9,30.28,ENE,61,0.0,0.0,21,0.00,CLR,,0.00,WeatherDisplay:10.37,2013-05-22 02:55:00,
2013-05-21 19:00:00,66.0,24.9,30.28,SE,130,0.0,0.0,21,0.00,CLR,,0.00,WeatherDisplay:10.37,2013-05-22 03:00:00,
2013-05-21 19:10:00,64.3,23.5,30.28,SE,126,0.0,0.0,21,0.00,CLR,,0.00,WeatherDisplay:10.37,2013-05-22 03:10:00,
2013-05-21 19:15:00,63.9,23.2,30.27,East,101,0.0,0.0,21,0.00,CLR,,0.00,WeatherDisplay:10.37,2013-05-22 03:15:00,
2013-05-21 19:20:00,63.2,22.5,30.27,ENE,69,0.0,0.0,21,0.00,CLR,,0.00,WeatherDisplay:10.37,2013-05-22 03:20:00,
2013-05-21 19:25:00,63.3,21.5,30.27,ENE,73,0.0,0.0,20,0.00,CLR,,0.00,WeatherDisplay:10.37,2013-05-22 03:25:00,
2013-05-21 19:30:00,63.5,27.9,30.26,ENE,76,0.0,0.0,26,0.00,CLR,,0.00,WeatherDisplay:10.37,2013-05-22 03:30:00,
2013-05-21 19:35:00,63.3,22.7,30.26,ENE,62,0.0,0.0,21,0.00,CLR,,0.00,WeatherDisplay:10.37,2013-05-22 03:35:00,
2013-05-21 19:40:00,63.4,22.7,30.26,East,82,0.0,0.0,21,0.00,CLR,,0.00,WeatherDisplay:10.37,2013-05-22 03:40:00,
2013-05-21 19:45:00,63.2,21.4,30.26,East,101,0.0,0.0,20,0.00,CLR,,0.00,WeatherDisplay:10.37,2013-05-22 03:45:00,
2013-05-21 19:55:00,62.8,24.4,30.26,ESE,111,0.0,0.0,23,0.00,CLR,,0.00,WeatherDisplay:10.37,2013-05-22 03:55:00,
2013-05-21 20:00:00,63.0,22.4,30.26,East,95,0.0,0.0,21,0.00,CLR,,0.00,WeatherDisplay:10.37,2013-05-22 04:00:00,
2013-05-21 20:05:00,63.1,23.6,30.25,East,86,0.0,0.0,22,0.00,CLR,,0.00,WeatherDisplay:10.37,2013-05-22 04:05:00,
2013-05-21 20:10:00,62.4,20.8,30.25,ESE,109,0.0,0.0,20,0.00,CLR,,0.00,WeatherDisplay:10.37,2013-05-22 04:10:00,
2013-05-21 20:15:00,62.1,27.7,30.25,ESE,107,0.0,0.0,27,0.00,CLR,,0.00,WeatherDisplay:10.37,2013-05-22 04:15:00,
2013-05-21 20:20:00,61.9,22.6,30.25,East,86,0.0,0.0,22,0.00,CLR,,0.00,WeatherDisplay:10.37,2013-05-22 04:20:00,
2013-05-21 20:25:00,61.5,21.2,30.25,ENE,78,0.0,0.0,21,0.00,CLR,,0.00,WeatherDisplay:10.37,2013-05-22 04:25:00,
2013-05-21 20:30:00,61.2,20.9,30.25,East,86,0.0,0.0,21,0.00,CLR,,0.00,WeatherDisplay:10.37,2013-05-22 04:30:00,
2013-05-21 20:35:00,61.3,22.1,30.25,East,85,0.0,0.0,22,0.00,CLR,,0.00,WeatherDisplay:10.37,2013-05-22 04:35:00,
2013-05-21 20:40:00,61.3,22.1,30.25,ENE,62,0.0,0.0,22,0.00,CLR,,0.00,WeatherDisplay:10.37,2013-05-22 04:40:00,
2013-05-21 20:45:00,60.9,20.7,30.25,ENE,71,0.0,0.0,21,0.00,CLR,,0.00,WeatherDisplay:10.37,2013-05-22 04:45:00,
2013-05-21 20:55:00,59.7,21.8,30.24,East,81,0.0,0.0,23,0.00,CLR,,0.00,WeatherDisplay:10.37,2013-05-22 04:55:00,
2013-05-21 21:00:00,59.7,19.7,30.24,ENE,73,0.0,0.0,21,0.00,CLR,,0.00,WeatherDisplay:10.37,2013-05-22 05:00:00,
2013-05-21 21:10:00,60.1,23.1,30.24,ENE,66,0.0,0.0,24,0.00,CLR,,0.00,WeatherDisplay:10.37,2013-05-22 05:10:00,
2013-05-21 21:15:00,59.7,26.5,30.24,ENE,67,0.0,0.0,28,0.00,CLR,,0.00,WeatherDisplay:10.37,2013-05-22 05:15:00,
2013-05-21 21:20:00,59.1,26.8,30.24,ENE,58,0.0,0.0,29,0.00,CLR,,0.00,WeatherDisplay:10.37,2013-05-22 05:20:00,
2013-05-21 21:25:00,58.4,29.4,30.24,NE,46,0.0,0.0,33,0.00,CLR,,0.00,WeatherDisplay:10.37,2013-05-22 05:25:00,
2013-05-21 21:30:00,57.7,28.8,30.24,NE,47,0.0,0.0,33,0.00,CLR,,0.00,WeatherDisplay:10.37,2013-05-22 05:30:00,
2013-05-21 21:35:00,57.4,29.2,30.24,NE,45,0.0,0.0,34,0.00,CLR,,0.00,WeatherDisplay:10.37,2013-05-22 05:35:00,
2013-05-21 21:45:00,57.2,29.1,30.24,NE,42,0.0,0.0,34,0.00,CLR,,0.00,WeatherDisplay:10.37,2013-05-22 05:45:00,
2013-05-21 21:50:00,57.3,26.1,30.24,NE,43,0.0,0.0,30,0.00,CLR,,0.00,WeatherDisplay:10.37,2013-05-22 05:50:00,
2013-05-21 21:55:00,56.9,28.8,30.24,NNE,25,0.0,0.0,34,0.00,CLR,,0.00,WeatherDisplay:10.37,2013-05-22 05:55:00,
2013-05-21 22:00:00,56.1,25.0,30.23,NNE,18,0.0,0.0,30,0.00,CLR,,0.00,WeatherDisplay:10.37,2013-05-22 06:00:00,
2013-05-21 22:05:00,55.0,25.6,30.24,NNE,25,0.0,0.0,32,0.00,CLR,,0.00,WeatherDisplay:10.37,2013-05-22 06:05:00,
2013-05-21 22:10:00,54.0,26.2,30.23,NNE,24,0.0,0.0,34,0.00,CLR,,0.00,WeatherDisplay:10.37,2013-05-22 06:10:00,
2013-05-21 22:15:00,53.2,26.3,30.23,NNE,21,0.0,0.0,35,0.00,CLR,,0.00,WeatherDisplay:10.37,2013-05-22 06:15:00,
2013-05-21 22:20:00,53.0,27.4,30.23,NNE,16,0.0,0.0,37,0.00,CLR,,0.00,WeatherDisplay:10.37,2013-05-22 06:20:00,
2013-05-21 22:25:00,52.5,25.6,30.23,NNE,20,0.0,0.0,35,0.00,CLR,,0.00,WeatherDisplay:10.37,2013-05-22 06:25:00,
2013-05-21 22:30:00,52.2,26.7,30.23,NNE,24,0.0,0.0,37,0.00,CLR,,0.00,WeatherDisplay:10.37,2013-05-22 06:30:00,
2013-05-21 22:40:00,51.1,27.0,30.23,NNE,24,0.0,0.0,39,0.00,CLR,,0.00,WeatherDisplay:10.37,2013-05-22 06:40:00,
2013-05-21 22:45:00,50.5,25.2,30.23,NNE,33,0.0,0.0,37,0.00,CLR,,0.00,WeatherDisplay:10.37,2013-05-22 06:45:00,
2013-05-21 22:50:00,49.6,25.0,30.23,South,185,0.0,0.0,38,0.00,CLR,,0.00,WeatherDisplay:10.37,2013-05-22 06:50:00,
2013-05-21 22:55:00,48.9,23.8,30.23,SW,217,0.0,0.0,37,0.00,CLR,,0.00,WeatherDisplay:10.37,2013-05-22 06:55:00,
2013-05-21 23:00:00,48.2,23.7,30.23,SW,228,0.0,0.0,38,0.00,CLR,,0.00,WeatherDisplay:10.37,2013-05-22 07:00:00,
2013-05-21 23:05:00,47.8,24.0,30.22,SW,230,0.0,0.0,39,0.00,CLR,,0.00,WeatherDisplay:10.37,2013-05-22 07:05:00,
2013-05-21 23:10:00,47.3,26.5,30.22,WSW,250,0.0,0.0,44,0.00,CLR,,0.00,WeatherDisplay:10.37,2013-05-22 07:10:00,
2013-05-21 23:15:00,46.9,24.4,30.22,WNW,292,0.0,0.0,41,0.00,CLR,,0.00,WeatherDisplay:10.37,2013-05-22 07:15:00,
2013-05-21 23:25:00,46.6,28.4,30.22,NNE,13,0.0,0.0,49,0.00,CLR,,0.00,WeatherDisplay:10.37,2013-05-22 07:25:00,
2013-05-21 23:30:00,46.4,27.2,30.22,NNE,31,0.0,0.0,47,0.00,CLR,,0.00,WeatherDisplay:10.37,2013-05-22 07:30:00,
2013-05-21 23:35:00,46.2,27.1,30.22,NNE,16,0.0,0.0,47,0.00,CLR,,0.00,WeatherDisplay:10.37,2013-05-22 07:35:00,
2013-05-21 23:40:00,46.0,26.9,30.22,North,5,0.0,0.0,47,0.00,CLR,,0.00,WeatherDisplay:10.37,2013-05-22 07:40:00,
2013-05-21 23:45:00,46.2,34.7,30.22,North,8,0.0,0.0,64,0.00,CLR,,0.00,WeatherDisplay:10.37,2013-05-22 07:45:00,
2013-05-21 23:55:00,46.7,28.0,30.22,North,7,0.0,0.0,48,0.00,CLR,,0.00,WeatherDisplay:10.37,2013-05-22 07:55:00,